createdAt,value
2018-12-13T00:01:01.432Z,4.2
2018-12-13T00:16:01.343Z,4.1
2018-12-13T00:31:01.325Z,4.1
2018-12-13T00:36:01.253Z,4.0
2018-12-13T00:46:01.593Z,3.9
2018-12-13T01:01:01.333Z,3.9
2018-12-13T01:06:01.257Z,3.8
2018-12-13T01:21:01.543Z,3.8
2018-12-13T01:36:01.316Z,3.8
2018-12-13T01:51:01.400Z,3.8
2018-12-13T02:07:01.378Z,3.8
2018-12-13T02:22:02.351Z,3.8
2018-12-13T02:32:01.324Z,3.7
2018-12-13T02:47:01.379Z,3.7
2018-12-13T02:52:01.382Z,3.6
2018-12-13T03:07:01.653Z,3.6
2018-12-13T03:17:01.286Z,3.5
2018-12-13T03:27:01.390Z,3.4
2018-12-13T03:32:01.329Z,3.3
2018-12-13T03:42:01.452Z,3.2
2018-12-13T03:47:01.317Z,3.1
2018-12-13T04:02:01.393Z,3.1
2018-12-13T04:07:01.589Z,3.0
2018-12-13T04:17:01.353Z,2.9
2018-12-13T04:32:01.331Z,2.8
2018-12-13T04:48:01.384Z,2.7
2018-12-13T04:58:01.380Z,2.6
2018-12-13T05:08:01.416Z,2.5
2018-12-13T05:23:01.821Z,2.4
2018-12-13T05:28:01.371Z,2.3
2018-12-13T05:43:01.330Z,2.3
2018-12-13T05:58:01.323Z,2.3
2018-12-13T06:13:01.383Z,2.3
2018-12-13T06:23:01.389Z,2.2
2018-12-13T06:38:01.771Z,2.2
2018-12-13T06:48:01.316Z,2.1
2018-12-13T06:58:01.272Z,2.2
2018-12-13T07:03:01.273Z,2.3
2018-12-13T07:13:01.265Z,2.5
2018-12-13T07:18:01.273Z,2.6
2018-12-13T07:33:01.279Z,2.6
2018-12-13T07:48:02.228Z,2.6
2018-12-13T08:03:01.260Z,2.5
2018-12-13T08:18:01.266Z,2.5
2018-12-13T08:33:01.268Z,2.5
2018-12-13T08:48:01.268Z,2.6
2018-12-13T08:58:01.269Z,2.7
2018-12-13T09:03:01.226Z,2.8
2018-12-13T09:08:01.267Z,2.9
2018-12-13T09:18:01.257Z,3.0
2018-12-13T09:28:01.230Z,3.1
2018-12-13T09:38:01.265Z,3.2
2018-12-13T09:53:01.279Z,3.3
2018-12-13T10:03:01.229Z,3.4
2018-12-13T10:18:01.231Z,3.4
2018-12-13T10:33:01.278Z,3.3
2018-12-13T10:38:01.276Z,3.4
2018-12-13T10:53:01.089Z,3.5
2018-12-13T11:08:01.427Z,3.6
2018-12-13T11:13:01.407Z,3.7
2018-12-13T11:23:01.444Z,3.8
2018-12-13T11:38:01.533Z,3.9
2018-12-13T11:48:01.422Z,3.8
2018-12-13T12:03:01.482Z,3.7
2018-12-13T12:18:01.456Z,3.8
2018-12-13T12:23:01.477Z,3.9
2018-12-13T12:38:01.405Z,4.0
2018-12-13T12:48:01.426Z,4.1
2018-12-13T13:03:02.263Z,4.1
2018-12-13T13:13:01.430Z,4.0
2018-12-13T13:18:01.418Z,3.9
2018-12-13T13:23:01.524Z,3.8
2018-12-13T13:28:01.454Z,3.5
2018-12-13T13:33:01.439Z,3.4
2018-12-13T13:38:01.444Z,3.1
2018-12-13T13:43:01.444Z,3.0
2018-12-13T13:48:01.457Z,2.9
2018-12-13T14:03:01.407Z,2.9
2018-12-13T14:18:01.299Z,2.9
2018-12-13T14:28:01.267Z,3.0
2018-12-13T14:38:01.260Z,3.1
2018-12-13T14:48:01.305Z,3.2
2018-12-13T14:58:01.265Z,3.3
2018-12-13T15:08:01.238Z,3.4
2018-12-13T15:23:01.262Z,3.4
2018-12-13T15:38:01.260Z,3.4
2018-12-13T15:53:01.271Z,3.3
2018-12-13T16:08:01.238Z,3.3
2018-12-13T16:18:01.084Z,3.2
2018-12-13T16:23:01.396Z,3.1
2018-12-13T16:38:01.355Z,3.0
2018-12-13T16:53:02.329Z,2.9
2018-12-13T17:08:01.333Z,2.9
2018-12-13T17:23:01.358Z,3.0
2018-12-13T17:33:01.419Z,3.1
2018-12-13T17:48:01.337Z,3.2
2018-12-13T17:58:01.406Z,3.3
2018-12-13T18:03:01.399Z,3.4
2018-12-13T18:18:01.387Z,3.5
2018-12-13T18:33:01.406Z,3.5
2018-12-13T18:43:01.323Z,3.4
2018-12-13T18:58:01.335Z,3.4
2018-12-13T19:08:02.298Z,3.5
2018-12-13T19:23:01.409Z,3.5
2018-12-13T19:33:01.383Z,3.4
2018-12-13T19:48:01.325Z,3.4
2018-12-13T20:03:01.332Z,3.3
2018-12-13T20:18:01.316Z,3.3
2018-12-13T20:33:01.388Z,3.3
2018-12-13T20:43:01.398Z,3.4
2018-12-13T20:58:01.379Z,3.3
2018-12-13T21:08:01.321Z,3.4
2018-12-13T21:23:01.287Z,3.4
2018-12-13T21:28:01.295Z,3.3
2018-12-13T21:43:02.194Z,3.3
2018-12-13T21:58:02.402Z,3.3
2018-12-13T22:13:01.357Z,3.3
2018-12-13T22:28:01.399Z,3.2
2018-12-13T22:43:01.336Z,3.2
2018-12-13T22:48:01.645Z,3.1
2018-12-13T22:53:01.387Z,3.0
2018-12-13T23:03:02.354Z,2.9
2018-12-13T23:13:01.448Z,2.8
2018-12-13T23:28:01.365Z,2.8
2018-12-13T23:43:01.254Z,2.8
2018-12-13T23:58:01.332Z,2.8
